Time;durP1;ratioP1;P1;durP2;ratioP2;P2;SDS_P1;SDS_P2;PMS_P1;PMS_P2;Temp;Humidity;BMP_temperature;BMP_pressure;BME280_temperature;BME280_humidity;BME280_pressure;Samples;Min_cycle;Max_cycle;Signal;HPM_P1;HPM_P2
2022/05/17 00:02:20;;;;;;;12.88;8.38;;;;;;;;;;5052042;28;20040;-67
2022/05/17 00:04:46;;;;;;;12.00;8.18;;;;;;;;;;5050596;28;20035;-67
2022/05/17 00:07:12;;;;;;;11.73;8.05;;;;;;;;;;5051850;28;20396;-67
2022/05/17 00:09:38;;;;;;;14.85;8.35;;;;;;;;;;5052041;28;20025;-67
2022/05/17 00:12:04;;;;;;;12.88;8.80;;;;;;;;;;5052010;28;20025;-68
2022/05/17 00:14:31;;;;;;;15.20;7.57;;;;;;;;;;5051796;28;20033;-65
2022/05/17 00:16:57;;;;;;;14.15;8.20;;;;;;;;;;5051792;28;20048;-67
2022/05/17 00:19:24;;;;;;;18.70;8.60;;;;;;;;;;5051384;28;20459;-73
2022/05/17 00:21:51;;;;;;;12.55;8.05;;;;;;;;;;5051457;28;20037;-72
2022/05/17 00:24:20;;;;;;;12.73;8.40;;;;;;;;;;5051270;28;20471;-72
2022/05/17 00:26:46;;;;;;;14.10;8.38;;;;;;;;;;5051549;28;20049;-74
2022/05/17 00:29:12;;;;;;;10.65;8.32;;;;;;;;;;5052193;28;20465;-68
2022/05/17 00:31:38;;;;;;;18.55;8.05;;;;;;;;;;5051869;28;20048;-66
2022/05/17 00:34:05;;;;;;;12.88;8.20;;;;;;;;;;5051877;28;20031;-67
2022/05/17 00:36:32;;;;;;;11.10;8.38;;;;;;;;;;5051884;28;20037;-66
2022/05/17 00:38:58;;;;;;;14.40;9.07;;;;;;;;;;5050683;28;20029;-66
2022/05/17 00:41:24;;;;;;;21.88;8.85;;;;;;;;;;5050437;28;20472;-67
2022/05/17 00:46:52;;;;;;;15.80;7.53;;;;;;;;;;5051764;28;20043;-67
2022/05/17 00:49:34;;;;;;;13.75;7.35;;;;;;;;;;5052092;28;20384;-68
2022/05/17 00:52:04;;;;;;;13.90;8.02;;;;;;;;;;5051404;28;20040;-67
2022/05/17 00:54:31;;;;;;;14.10;8.43;;;;;;;;;;5051415;28;20094;-66
2022/05/17 00:57:09;;;;;;;18.13;10.10;;;;;;;;;;5051183;28;20048;-67
2022/05/17 00:59:37;;;;;;;16.23;9.50;;;;;;;;;;5054834;28;20047;-66
2022/05/17 01:02:08;;;;;;;13.70;9.43;;;;;;;;;;5055787;28;20420;-68
2022/05/17 01:04:33;;;;;;;23.20;9.27;;;;;;;;;;5054300;28;20047;-73
2022/05/17 01:07:10;;;;;;;16.33;9.93;;;;;;;;;;5055639;28;20092;-66
2022/05/17 01:09:36;;;;;;;16.70;9.88;;;;;;;;;;5055854;28;20094;-70
2022/05/17 01:12:02;;;;;;;17.17;10.27;;;;;;;;;;5055635;28;20391;-66
2022/05/17 01:17:13;;;;;;;13.32;8.85;;;;;;;;;;5055394;28;20041;-66
2022/05/17 01:19:40;;;;;;;13.32;8.85;;;;;;;;;;5054202;28;20091;-67
2022/05/17 01:22:06;;;;;;;10.80;8.75;;;;;;;;;;5055449;28;20033;-67
2022/05/17 01:24:32;;;;;;;12.13;9.45;;;;;;;;;;5055612;28;20025;-68
2022/05/17 01:27:03;;;;;;;9.55;8.05;;;;;;;;;;5055381;28;20068;-66
2022/05/17 01:29:37;;;;;;;12.80;8.15;;;;;;;;;;5049232;28;20033;-67
2022/05/17 01:32:03;;;;;;;10.40;7.22;;;;;;;;;;5046000;28;20033;-70
2022/05/17 01:34:29;;;;;;;10.35;6.82;;;;;;;;;;5055184;28;20025;-66
2022/05/17 01:36:55;;;;;;;10.90;7.82;;;;;;;;;;5055098;28;20036;-65
2022/05/17 01:39:21;;;;;;;11.35;8.02;;;;;;;;;;5055357;28;20024;-68
2022/05/17 01:41:47;;;;;;;9.63;7.68;;;;;;;;;;5054051;28;20125;-66
2022/05/17 01:44:12;;;;;;;12.63;8.65;;;;;;;;;;5053719;28;20021;-67
2022/05/17 01:46:38;;;;;;;10.90;8.20;;;;;;;;;;5054645;28;20076;-66
2022/05/17 01:49:04;;;;;;;10.07;8.23;;;;;;;;;;5054296;28;20021;-67
2022/05/17 01:51:30;;;;;;;9.25;7.68;;;;;;;;;;5053890;28;20124;-66
2022/05/17 01:53:55;;;;;;;9.25;7.80;;;;;;;;;;5054506;28;20053;-68
2022/05/17 01:56:21;;;;;;;11.20;7.57;;;;;;;;;;5050723;28;20076;-66
2022/05/17 01:58:47;;;;;;;9.73;7.47;;;;;;;;;;5052735;28;20075;-66
2022/05/17 02:01:14;;;;;;;11.23;7.95;;;;;;;;;;5054358;28;20037;-67
2022/05/17 02:03:40;;;;;;;19.55;8.68;;;;;;;;;;5054294;28;20057;-67
2022/05/17 02:06:06;;;;;;;9.93;8.00;;;;;;;;;;5053984;28;20040;-68
2022/05/17 02:08:32;;;;;;;15.98;7.70;;;;;;;;;;5054320;28;20491;-66
2022/05/17 02:10:58;;;;;;;12.70;7.65;;;;;;;;;;5053540;28;20103;-66
2022/05/17 02:13:24;;;;;;;8.95;7.45;;;;;;;;;;5054238;28;20104;-67
2022/05/17 02:15:50;;;;;;;9.93;6.90;;;;;;;;;;5053965;28;20339;-67
2022/05/17 02:18:16;;;;;;;11.02;7.97;;;;;;;;;;5053888;28;20025;-66
2022/05/17 02:20:42;;;;;;;12.65;7.72;;;;;;;;;;5054018;28;20411;-66
2022/05/17 02:23:08;;;;;;;13.60;7.68;;;;;;;;;;5054255;28;20029;-66
2022/05/17 02:25:35;;;;;;;11.32;8.20;;;;;;;;;;5054320;28;20061;-66
2022/05/17 02:28:08;;;;;;;12.50;7.38;;;;;;;;;;5053504;28;20418;-68
2022/05/17 02:30:35;;;;;;;9.18;7.28;;;;;;;;;;5052972;28;20391;-67
2022/05/17 02:33:01;;;;;;;15.55;7.60;;;;;;;;;;5051728;28;20025;-66
2022/05/17 02:35:28;;;;;;;13.18;7.90;;;;;;;;;;5052530;28;20369;-66
2022/05/17 02:37:53;;;;;;;10.07;7.35;;;;;;;;;;5052371;28;20036;-67
2022/05/17 02:40:19;;;;;;;13.23;7.78;;;;;;;;;;5052894;28;20403;-67
2022/05/17 02:42:45;;;;;;;11.38;7.90;;;;;;;;;;5053106;28;20013;-66
2022/05/17 02:45:11;;;;;;;10.48;7.95;;;;;;;;;;5052827;28;20426;-66
2022/05/17 02:47:37;;;;;;;9.90;7.97;;;;;;;;;;5052528;28;20051;-67
2022/05/17 02:50:03;;;;;;;10.13;7.63;;;;;;;;;;5053196;28;20032;-67
2022/05/17 02:52:29;;;;;;;14.38;7.90;;;;;;;;;;5052747;28;20028;-68
2022/05/17 02:54:55;;;;;;;11.02;7.00;;;;;;;;;;5052786;28;20038;-67
2022/05/17 02:57:21;;;;;;;8.23;6.65;;;;;;;;;;5053035;28;20074;-71
2022/05/17 02:59:47;;;;;;;10.23;7.13;;;;;;;;;;5053890;28;20037;-68
2022/05/17 03:02:12;;;;;;;12.80;7.00;;;;;;;;;;5054260;28;20099;-68
2022/05/17 03:04:38;;;;;;;9.40;7.15;;;;;;;;;;5054519;28;20041;-68
2022/05/17 03:07:04;;;;;;;12.93;7.93;;;;;;;;;;5054173;28;20063;-69
2022/05/17 03:09:30;;;;;;;11.15;7.38;;;;;;;;;;5054447;28;20029;-70
2022/05/17 03:11:57;;;;;;;15.73;7.38;;;;;;;;;;5054273;28;20036;-73
2022/05/17 03:14:23;;;;;;;16.60;8.05;;;;;;;;;;5054210;28;20040;-67
2022/05/17 03:16:48;;;;;;;16.63;8.63;;;;;;;;;;5052800;28;20013;-66
2022/05/17 03:19:14;;;;;;;16.77;8.23;;;;;;;;;;5052514;28;20036;-66
2022/05/17 03:21:40;;;;;;;11.85;7.85;;;;;;;;;;5052944;28;20488;-66
2022/05/17 03:24:06;;;;;;;16.90;7.82;;;;;;;;;;5053844;28;20112;-66
2022/05/17 03:26:32;;;;;;;11.05;7.00;;;;;;;;;;5053599;28;20487;-66
2022/05/17 03:28:58;;;;;;;21.02;7.30;;;;;;;;;;5052591;28;20495;-67
2022/05/17 03:31:25;;;;;;;18.88;8.20;;;;;;;;;;5052403;28;20021;-68
2022/05/17 03:33:51;;;;;;;12.98;8.27;;;;;;;;;;5052197;28;20037;-66
2022/05/17 03:36:17;;;;;;;12.43;7.72;;;;;;;;;;5053497;28;20035;-66
2022/05/17 03:38:43;;;;;;;14.10;7.75;;;;;;;;;;5053283;28;20108;-66
2022/05/17 03:41:10;;;;;;;15.00;8.05;;;;;;;;;;5052484;28;20025;-66
2022/05/17 03:43:36;;;;;;;15.30;6.97;;;;;;;;;;5053368;28;20031;-67
2022/05/17 03:46:02;;;;;;;13.10;7.15;;;;;;;;;;5053295;28;20341;-66
2022/05/17 03:48:29;;;;;;;11.98;7.05;;;;;;;;;;5051937;28;20032;-66
2022/05/17 03:50:54;;;;;;;15.80;7.72;;;;;;;;;;5053301;28;20025;-67
2022/05/17 03:53:20;;;;;;;19.92;8.48;;;;;;;;;;5052739;28;20033;-66
2022/05/17 03:55:46;;;;;;;19.58;8.13;;;;;;;;;;5052852;28;20041;-67
2022/05/17 03:58:13;;;;;;;9.52;6.68;;;;;;;;;;5052927;28;20036;-67
2022/05/17 04:00:39;;;;;;;22.15;8.38;;;;;;;;;;5050330;28;20037;-67
2022/05/17 04:03:05;;;;;;;12.95;7.10;;;;;;;;;;5053088;28;20464;-67
2022/05/17 04:05:31;;;;;;;16.77;8.32;;;;;;;;;;5053180;28;20132;-72
2022/05/17 04:07:57;;;;;;;19.95;8.63;;;;;;;;;;5052938;28;20036;-70
2022/05/17 04:10:23;;;;;;;19.60;8.50;;;;;;;;;;5052806;28;20025;-71
2022/05/17 04:12:49;;;;;;;20.63;8.10;;;;;;;;;;5052745;28;20037;-71
2022/05/17 04:15:19;;;;;;;19.98;9.13;;;;;;;;;;5052126;28;20154;-70
2022/05/17 04:17:45;;;;;;;21.63;7.88;;;;;;;;;;5042257;28;20078;-70
2022/05/17 04:20:13;;;;;;;17.63;8.90;;;;;;;;;;5051752;28;20021;-70
2022/05/17 04:22:48;;;;;;;22.58;9.50;;;;;;;;;;5051395;28;20029;-73
2022/05/17 04:25:16;;;;;;;17.08;9.95;;;;;;;;;;5052815;28;20128;-74
2022/05/17 04:27:43;;;;;;;14.15;9.55;;;;;;;;;;5052660;28;20431;-78
2022/05/17 04:30:10;;;;;;;18.08;9.38;;;;;;;;;;5053046;28;20025;-72
2022/05/17 04:32:35;;;;;;;30.08;10.10;;;;;;;;;;5051248;28;20039;-72
2022/05/17 04:35:01;;;;;;;13.93;9.43;;;;;;;;;;5051860;28;20454;-72
2022/05/17 04:37:28;;;;;;;19.90;9.63;;;;;;;;;;5065556;28;20031;-71
2022/05/17 04:39:55;;;;;;;17.33;10.57;;;;;;;;;;5051037;28;20025;-74
2022/05/17 04:42:21;;;;;;;13.68;9.18;;;;;;;;;;5051711;28;20025;-72
2022/05/17 04:44:49;;;;;;;24.02;10.18;;;;;;;;;;5049984;28;20052;-72
2022/05/17 04:47:15;;;;;;;14.85;8.82;;;;;;;;;;5068755;28;20024;-73
2022/05/17 04:49:42;;;;;;;29.80;10.75;;;;;;;;;;5059118;28;20361;-73
2022/05/17 04:52:07;;;;;;;27.60;10.05;;;;;;;;;;5051917;28;20036;-73
2022/05/17 04:54:33;;;;;;;15.45;8.68;;;;;;;;;;5050448;28;20047;-72
2022/05/17 04:56:59;;;;;;;21.08;9.55;;;;;;;;;;5051732;28;20194;-73
2022/05/17 04:59:25;;;;;;;23.45;9.93;;;;;;;;;;5052018;28;20044;-73
2022/05/17 05:01:51;;;;;;;24.92;10.00;;;;;;;;;;5051193;28;20434;-72
2022/05/17 05:04:17;;;;;;;26.48;10.55;;;;;;;;;;5049406;28;20029;-72
2022/05/17 05:06:43;;;;;;;19.52;10.50;;;;;;;;;;5049766;28;20021;-72
2022/05/17 05:09:13;;;;;;;35.88;10.07;;;;;;;;;;5049889;28;20051;-71
2022/05/17 05:11:39;;;;;;;19.48;9.48;;;;;;;;;;5050397;28;20037;-72
2022/05/17 05:14:05;;;;;;;20.25;9.27;;;;;;;;;;5051172;28;20480;-72
2022/05/17 05:16:32;;;;;;;20.67;8.70;;;;;;;;;;5049469;28;20055;-72
2022/05/17 05:18:58;;;;;;;17.00;9.80;;;;;;;;;;5051583;28;20040;-71
2022/05/17 05:21:23;;;;;;;23.75;9.95;;;;;;;;;;5051708;28;20537;-73
2022/05/17 05:23:49;;;;;;;14.35;9.68;;;;;;;;;;5051731;28;20056;-72
2022/05/17 05:26:16;;;;;;;19.40;10.38;;;;;;;;;;5051822;28;20060;-72
2022/05/17 05:28:43;;;;;;;16.77;10.63;;;;;;;;;;5051594;28;20498;-70
2022/05/17 05:31:10;;;;;;;20.92;10.32;;;;;;;;;;5050739;28;20033;-71
2022/05/17 05:33:36;;;;;;;24.73;11.32;;;;;;;;;;5071510;28;20090;-70
2022/05/17 05:36:03;;;;;;;26.48;11.73;;;;;;;;;;5071753;28;20442;-72
2022/05/17 05:38:29;;;;;;;22.38;10.70;;;;;;;;;;5071537;28;20050;-71
2022/05/17 05:40:55;;;;;;;15.40;9.70;;;;;;;;;;5071610;28;20024;-71
2022/05/17 05:43:24;;;;;;;16.50;8.73;;;;;;;;;;5071760;28;20041;-70
2022/05/17 05:45:50;;;;;;;20.95;10.13;;;;;;;;;;5073297;28;20029;-70
2022/05/17 05:48:16;;;;;;;21.95;10.18;;;;;;;;;;5070861;28;20029;-71
2022/05/17 05:50:42;;;;;;;19.25;8.60;;;;;;;;;;5073271;28;20024;-73
2022/05/17 05:53:11;;;;;;;15.32;8.95;;;;;;;;;;5074750;28;20033;-71
2022/05/17 05:55:38;;;;;;;23.40;10.55;;;;;;;;;;5074962;28;20115;-71
2022/05/17 05:58:05;;;;;;;14.57;8.75;;;;;;;;;;5074908;28;20040;-79
2022/05/17 06:00:33;;;;;;;12.05;8.63;;;;;;;;;;5074943;28;20040;-74
2022/05/17 06:02:59;;;;;;;19.25;8.02;;;;;;;;;;5075193;28;20066;-78
2022/05/17 06:05:25;;;;;;;10.48;8.68;;;;;;;;;;5075128;28;20028;-77
2022/05/17 06:07:52;;;;;;;10.15;7.78;;;;;;;;;;5074858;28;20451;-72
2022/05/17 06:10:20;;;;;;;11.75;8.23;;;;;;;;;;5064545;28;20103;-72
2022/05/17 06:12:46;;;;;;;14.70;7.32;;;;;;;;;;5035044;28;20042;-71
2022/05/17 06:15:12;;;;;;;17.17;8.02;;;;;;;;;;5034968;28;20025;-72
2022/05/17 06:17:39;;;;;;;16.65;7.78;;;;;;;;;;5034696;28;20392;-70
2022/05/17 06:20:07;;;;;;;14.77;7.75;;;;;;;;;;5065159;28;20024;-71
2022/05/17 06:22:34;;;;;;;15.93;8.15;;;;;;;;;;5074432;28;20029;-71
2022/05/17 06:25:00;;;;;;;20.73;8.15;;;;;;;;;;5074129;28;20028;-71
2022/05/17 06:27:26;;;;;;;12.00;7.68;;;;;;;;;;5073866;28;20077;-71
2022/05/17 06:29:52;;;;;;;16.33;7.78;;;;;;;;;;5074272;28;20027;-72
2022/05/17 06:32:19;;;;;;;11.80;8.65;;;;;;;;;;5073290;28;20472;-72
2022/05/17 06:34:47;;;;;;;22.10;8.85;;;;;;;;;;5074505;28;20032;-69
2022/05/17 06:37:13;;;;;;;18.38;8.77;;;;;;;;;;5073059;28;20086;-71
2022/05/17 06:39:40;;;;;;;17.00;7.78;;;;;;;;;;5074310;28;20032;-71
2022/05/17 06:42:07;;;;;;;10.00;6.88;;;;;;;;;;5074274;28;20205;-70
2022/05/17 06:44:34;;;;;;;13.77;7.30;;;;;;;;;;5072812;28;20034;-68
2022/05/17 06:47:01;;;;;;;17.55;8.35;;;;;;;;;;5073743;28;20147;-71
2022/05/17 06:49:27;;;;;;;10.30;6.70;;;;;;;;;;5072846;28;20463;-70
2022/05/17 06:51:54;;;;;;;7.47;6.57;;;;;;;;;;5064386;28;20036;-70
2022/05/17 06:54:20;;;;;;;17.40;7.65;;;;;;;;;;5054266;28;20036;-70
2022/05/17 06:56:46;;;;;;;10.32;6.30;;;;;;;;;;5053913;28;20403;-72
2022/05/17 06:59:12;;;;;;;9.90;5.90;;;;;;;;;;5053996;28;20036;-70
2022/05/17 07:01:39;;;;;;;11.30;5.38;;;;;;;;;;5053856;28;20039;-68
2022/05/17 07:04:05;;;;;;;7.57;5.63;;;;;;;;;;5053759;28;20025;-70
2022/05/17 07:06:30;;;;;;;7.15;4.78;;;;;;;;;;5053182;28;20063;-70
2022/05/17 07:08:56;;;;;;;6.50;4.88;;;;;;;;;;5053255;28;20036;-68
2022/05/17 07:14:06;;;;;;;8.18;4.90;;;;;;;;;;5052288;28;20036;-73
2022/05/17 07:16:33;;;;;;;8.20;5.10;;;;;;;;;;5053427;28;20529;-72
2022/05/17 07:18:59;;;;;;;9.68;5.18;;;;;;;;;;5053262;28;20527;-69
2022/05/17 07:21:25;;;;;;;15.40;5.88;;;;;;;;;;5053294;28;20105;-69
2022/05/17 07:23:51;;;;;;;11.02;5.80;;;;;;;;;;5053149;28;20095;-69
2022/05/17 07:26:17;;;;;;;9.18;5.30;;;;;;;;;;5053380;28;20025;-69
2022/05/17 07:28:47;;;;;;;9.77;5.10;;;;;;;;;;5053463;28;20120;-69
2022/05/17 07:31:14;;;;;;;7.82;4.82;;;;;;;;;;5053296;28;20063;-69
2022/05/17 07:33:40;;;;;;;9.43;5.05;;;;;;;;;;5053277;28;20422;-69
2022/05/17 07:36:08;;;;;;;10.00;5.20;;;;;;;;;;5053637;28;20036;-69
2022/05/17 07:38:35;;;;;;;10.45;5.22;;;;;;;;;;5053042;28;20032;-70
2022/05/17 07:41:01;;;;;;;7.40;5.00;;;;;;;;;;5053308;28;20044;-71
2022/05/17 07:43:27;;;;;;;8.07;4.72;;;;;;;;;;5053170;28;20025;-71
2022/05/17 07:45:53;;;;;;;8.15;5.05;;;;;;;;;;5053028;28;20048;-69
2022/05/17 07:48:22;;;;;;;7.47;5.07;;;;;;;;;;5052697;28;20025;-71
2022/05/17 07:50:49;;;;;;;10.90;5.03;;;;;;;;;;5052833;28;20033;-71
2022/05/17 07:53:17;;;;;;;4.95;4.30;;;;;;;;;;5053368;28;20025;-71
2022/05/17 07:55:44;;;;;;;5.43;4.20;;;;;;;;;;5052540;28;20053;-74
2022/05/17 07:58:10;;;;;;;9.05;4.50;;;;;;;;;;5052443;28;20551;-71
2022/05/17 08:00:38;;;;;;;7.95;4.35;;;;;;;;;;5052878;28;20025;-77
2022/05/17 08:03:05;;;;;;;6.93;4.10;;;;;;;;;;5052961;28;20025;-76
2022/05/17 08:05:31;;;;;;;7.55;4.72;;;;;;;;;;5052670;28;20029;-74
2022/05/17 08:07:59;;;;;;;7.00;4.40;;;;;;;;;;5051811;28;20094;-72
2022/05/17 08:10:25;;;;;;;5.55;4.55;;;;;;;;;;5052585;28;20035;-71
2022/05/17 08:12:51;;;;;;;9.15;4.80;;;;;;;;;;5052418;28;20104;-75
2022/05/17 08:15:19;;;;;;;6.85;4.45;;;;;;;;;;5052306;28;20106;-74
2022/05/17 08:17:45;;;;;;;7.55;4.93;;;;;;;;;;5051345;28;20132;-71
2022/05/17 08:20:11;;;;;;;7.72;4.70;;;;;;;;;;5052830;28;20175;-70
2022/05/17 08:22:43;;;;;;;5.47;4.65;;;;;;;;;;5052469;28;20463;-70
2022/05/17 08:27:57;;;;;;;10.80;4.65;;;;;;;;;;5052009;28;20037;-72
2022/05/17 08:30:24;;;;;;;8.35;4.00;;;;;;;;;;5051634;28;20305;-73
2022/05/17 08:36:10;;;;;;;12.90;5.20;;;;;;;;;;5050906;28;20427;-71
2022/05/17 08:38:46;;;;;;;7.68;4.55;;;;;;;;;;5051723;28;20036;-74
2022/05/17 08:41:26;;;;;;;9.52;4.65;;;;;;;;;;5052097;28;20534;-70
2022/05/17 08:44:00;;;;;;;12.13;4.88;;;;;;;;;;5051792;28;20039;-70
2022/05/17 08:46:44;;;;;;;13.77;4.75;;;;;;;;;;5051506;28;20040;-73
2022/05/17 08:49:33;;;;;;;6.20;4.47;;;;;;;;;;5051517;28;20398;-70
2022/05/17 08:52:18;;;;;;;10.35;4.72;;;;;;;;;;5051105;28;20384;-69
2022/05/17 08:54:58;;;;;;;9.13;4.30;;;;;;;;;;5051988;28;20116;-71
2022/05/17 08:57:41;;;;;;;14.00;4.70;;;;;;;;;;5051338;28;20509;-69
2022/05/17 09:00:17;;;;;;;7.22;4.63;;;;;;;;;;5050610;28;20033;-71
2022/05/17 09:03:12;;;;;;;5.50;4.10;;;;;;;;;;5050634;28;20061;-70
2022/05/17 09:05:57;;;;;;;6.88;4.50;;;;;;;;;;5048467;28;20377;-69
2022/05/17 09:08:44;;;;;;;10.98;4.68;;;;;;;;;;5051871;28;20033;-70
2022/05/17 09:11:16;;;;;;;6.00;4.15;;;;;;;;;;5051680;28;20087;-70
2022/05/17 09:14:08;;;;;;;8.25;4.65;;;;;;;;;;5051400;28;20025;-71
2022/05/17 09:16:47;;;;;;;6.15;4.80;;;;;;;;;;5051456;28;20372;-70
2022/05/17 09:19:15;;;;;;;9.10;4.60;;;;;;;;;;5051622;28;20037;-70
2022/05/17 09:21:44;;;;;;;8.70;4.68;;;;;;;;;;5054571;28;20484;-71
2022/05/17 09:24:16;;;;;;;8.88;4.65;;;;;;;;;;5055267;28;20041;-72
2022/05/17 09:27:24;;;;;;;7.95;4.68;;;;;;;;;;5053993;28;20033;-71
2022/05/17 09:29:57;;;;;;;9.40;5.28;;;;;;;;;;5051872;28;20041;-71
2022/05/17 09:32:34;;;;;;;8.30;4.70;;;;;;;;;;5053699;28;20044;-70
2022/05/17 09:35:09;;;;;;;7.05;4.88;;;;;;;;;;5054963;28;20040;-71
2022/05/17 09:37:39;;;;;;;9.80;4.78;;;;;;;;;;5055154;28;20040;-72
2022/05/17 09:40:08;;;;;;;7.25;5.07;;;;;;;;;;5055179;28;20186;-71
2022/05/17 09:43:01;;;;;;;9.18;4.55;;;;;;;;;;5055053;28;20103;-77
2022/05/17 09:46:00;;;;;;;7.97;4.50;;;;;;;;;;5055135;28;20434;-78
2022/05/17 09:48:30;;;;;;;6.85;4.45;;;;;;;;;;5053879;28;20048;-76
2022/05/17 09:53:51;;;;;;;7.88;4.43;;;;;;;;;;5054865;28;20120;-73
2022/05/17 09:56:25;;;;;;;6.55;4.60;;;;;;;;;;5055006;28;20041;-76
2022/05/17 09:58:51;;;;;;;5.00;4.15;;;;;;;;;;5054967;28;20411;-72
2022/05/17 10:01:28;;;;;;;8.32;4.32;;;;;;;;;;5054773;28;20028;-74
2022/05/17 10:04:10;;;;;;;8.95;4.15;;;;;;;;;;5054611;28;20029;-72
2022/05/17 10:06:39;;;;;;;7.85;4.40;;;;;;;;;;5054844;28;20040;-71
2022/05/17 10:09:12;;;;;;;8.27;4.88;;;;;;;;;;5054545;28;20407;-71
2022/05/17 10:11:54;;;;;;;6.27;4.10;;;;;;;;;;5054037;28;20510;-70
2022/05/17 10:14:46;;;;;;;5.88;4.40;;;;;;;;;;5054742;28;20388;-71
2022/05/17 10:17:26;;;;;;;5.75;4.50;;;;;;;;;;5054102;28;20392;-71
2022/05/17 10:20:04;;;;;;;6.97;4.15;;;;;;;;;;5054116;28;20075;-71
2022/05/17 10:23:01;;;;;;;9.93;4.90;;;;;;;;;;5055463;28;20442;-70
2022/05/17 10:25:42;;;;;;;7.65;4.50;;;;;;;;;;5051377;28;20041;-71
2022/05/17 10:28:52;;;;;;;7.63;4.30;;;;;;;;;;5054342;28;20403;-70
2022/05/17 10:31:31;;;;;;;11.10;5.30;;;;;;;;;;5041468;28;20047;-70
2022/05/17 10:34:05;;;;;;;9.60;5.00;;;;;;;;;;5054381;28;20029;-70
2022/05/17 10:36:44;;;;;;;6.88;4.20;;;;;;;;;;5053699;28;20113;-71
2022/05/17 10:39:16;;;;;;;6.65;4.00;;;;;;;;;;5053586;28;20037;-71
2022/05/17 10:41:42;;;;;;;8.20;3.92;;;;;;;;;;5054269;28;20468;-70
2022/05/17 10:44:13;;;;;;;6.78;4.28;;;;;;;;;;5054330;28;20036;-70
2022/05/17 10:46:47;;;;;;;7.50;4.10;;;;;;;;;;5054095;28;20040;-71
2022/05/17 10:49:21;;;;;;;5.30;4.68;;;;;;;;;;5054278;28;20112;-71
2022/05/17 10:52:04;;;;;;;8.43;4.22;;;;;;;;;;5054372;28;20064;-69
2022/05/17 10:54:36;;;;;;;8.18;4.00;;;;;;;;;;5054159;28;20402;-71
2022/05/17 10:57:07;;;;;;;6.70;3.95;;;;;;;;;;5053257;28;20045;-70
2022/05/17 10:59:55;;;;;;;5.18;3.90;;;;;;;;;;5052191;28;20037;-71
2022/05/17 11:02:36;;;;;;;6.35;4.03;;;;;;;;;;5053895;28;20029;-71
2022/05/17 11:05:13;;;;;;;5.95;3.78;;;;;;;;;;5054066;28;20037;-70
2022/05/17 11:08:06;;;;;;;4.57;3.28;;;;;;;;;;5053858;28;20086;-72
2022/05/17 11:10:53;;;;;;;8.77;4.05;;;;;;;;;;5053900;28;20025;-71
2022/05/17 11:13:42;;;;;;;6.35;3.72;;;;;;;;;;5053944;28;20502;-69
2022/05/17 11:16:13;;;;;;;5.90;3.25;;;;;;;;;;5053636;28;20049;-71
2022/05/17 11:18:48;;;;;;;6.47;3.33;;;;;;;;;;5031663;28;20028;-71
2022/05/17 11:21:33;;;;;;;5.53;3.40;;;;;;;;;;5051930;28;20032;-73
2022/05/17 11:24:22;;;;;;;6.75;3.85;;;;;;;;;;5044690;28;20025;-71
2022/05/17 11:27:27;;;;;;;6.43;3.20;;;;;;;;;;5048850;28;20120;-72
2022/05/17 11:30:18;;;;;;;10.63;4.18;;;;;;;;;;5028422;28;20049;-71
2022/05/17 11:33:09;;;;;;;4.95;3.30;;;;;;;;;;5048253;28;20056;-72
2022/05/17 11:35:57;;;;;;;5.82;3.25;;;;;;;;;;5051630;28;20403;-77
2022/05/17 11:38:34;;;;;;;5.40;2.83;;;;;;;;;;5052319;28;20028;-75
2022/05/17 11:41:06;;;;;;;4.03;2.72;;;;;;;;;;5050431;28;20039;-75
2022/05/17 11:43:40;;;;;;;9.82;4.40;;;;;;;;;;5051550;28;20123;-74
2022/05/17 11:46:28;;;;;;;4.85;3.00;;;;;;;;;;5044051;28;20086;-76
2022/05/17 11:48:59;;;;;;;5.85;2.83;;;;;;;;;;5038700;28;20061;-73
2022/05/17 11:51:33;;;;;;;5.85;3.10;;;;;;;;;;5044850;28;20068;-76
2022/05/17 11:54:00;;;;;;;4.68;2.95;;;;;;;;;;5033117;28;20157;-74
2022/05/17 11:56:25;;;;;;;8.95;3.30;;;;;;;;;;5032827;28;20045;-74
2022/05/17 11:58:57;;;;;;;6.85;3.00;;;;;;;;;;5042054;28;20433;-73
2022/05/17 12:01:29;;;;;;;7.63;3.05;;;;;;;;;;5052748;28;20104;-76
2022/05/17 12:04:00;;;;;;;6.30;2.90;;;;;;;;;;5040204;28;20044;-73
2022/05/17 12:06:40;;;;;;;3.95;3.05;;;;;;;;;;5045207;28;20503;-76
2022/05/17 12:09:27;;;;;;;7.47;3.33;;;;;;;;;;5033477;28;20044;-74
2022/05/17 12:12:27;;;;;;;6.75;2.85;;;;;;;;;;5044397;28;20041;-70
2022/05/17 12:15:16;;;;;;;6.65;2.97;;;;;;;;;;5039618;28;20086;-76
2022/05/17 12:17:55;;;;;;;4.22;2.58;;;;;;;;;;5046516;28;20041;-75
2022/05/17 12:20:30;;;;;;;4.25;2.80;;;;;;;;;;5044367;28;20527;-73
2022/05/17 12:23:31;;;;;;;6.55;3.47;;;;;;;;;;5038358;28;20037;-71
2022/05/17 12:26:05;;;;;;;5.68;3.42;;;;;;;;;;5034894;28;20075;-73
2022/05/17 12:28:49;;;;;;;4.65;2.92;;;;;;;;;;5047553;28;20498;-72
2022/05/17 12:31:21;;;;;;;4.60;3.00;;;;;;;;;;5048692;28;20074;-73
2022/05/17 12:33:48;;;;;;;9.02;3.40;;;;;;;;;;5043590;28;20431;-73
2022/05/17 12:36:23;;;;;;;8.65;3.47;;;;;;;;;;5041478;28;20033;-73
2022/05/17 12:45:00;;;;;;;5.30;2.88;;;;;;;;;;5051997;28;20075;-72
2022/05/17 12:47:38;;;;;;;4.78;2.83;;;;;;;;;;5043949;28;20057;-72
2022/05/17 12:50:04;;;;;;;7.05;3.08;;;;;;;;;;5032161;28;20033;-72
2022/05/17 12:52:33;;;;;;;5.25;2.92;;;;;;;;;;5031904;28;20053;-73
2022/05/17 12:55:03;;;;;;;7.63;3.33;;;;;;;;;;5046999;28;20412;-72
2022/05/17 12:57:36;;;;;;;8.60;2.80;;;;;;;;;;5040656;28;20045;-71
2022/05/17 13:00:31;;;;;;;5.00;3.35;;;;;;;;;;5050957;28;20021;-72
2022/05/17 13:03:15;;;;;;;7.07;3.03;;;;;;;;;;5045806;28;20127;-73
2022/05/17 13:05:43;;;;;;;6.20;2.90;;;;;;;;;;5038946;28;20112;-71
2022/05/17 13:08:17;;;;;;;4.25;3.00;;;;;;;;;;5044783;28;20067;-73
2022/05/17 13:11:01;;;;;;;6.05;3.08;;;;;;;;;;5048540;28;20032;-74
2022/05/17 13:13:31;;;;;;;5.25;2.75;;;;;;;;;;5051538;28;20388;-75
2022/05/17 13:16:20;;;;;;;4.40;2.88;;;;;;;;;;5052883;28;20032;-71
2022/05/17 13:18:49;;;;;;;4.35;2.72;;;;;;;;;;5051547;28;20037;-75
2022/05/17 13:21:22;;;;;;;6.63;2.92;;;;;;;;;;5052154;28;20043;-74
2022/05/17 13:23:49;;;;;;;5.15;3.20;;;;;;;;;;5046757;28;20033;-75
2022/05/17 13:26:29;;;;;;;4.88;2.90;;;;;;;;;;5050984;28;20387;-72
2022/05/17 13:28:55;;;;;;;7.65;3.10;;;;;;;;;;5051672;28;20037;-73
2022/05/17 13:31:26;;;;;;;4.22;2.80;;;;;;;;;;5067307;28;20025;-74
2022/05/17 13:34:00;;;;;;;3.65;2.75;;;;;;;;;;5051784;28;20112;-75
2022/05/17 13:36:29;;;;;;;6.65;2.38;;;;;;;;;;5051797;28;20059;-77
2022/05/17 13:38:55;;;;;;;4.20;2.55;;;;;;;;;;5051737;28;20029;-73
2022/05/17 13:41:31;;;;;;;5.88;2.83;;;;;;;;;;5052183;28;20090;-77
2022/05/17 13:43:59;;;;;;;7.43;2.40;;;;;;;;;;5051991;28;20033;-72
2022/05/17 13:46:29;;;;;;;5.50;2.78;;;;;;;;;;5051402;28;20029;-76
2022/05/17 13:49:02;;;;;;;3.33;2.45;;;;;;;;;;5051464;28;20033;-72
2022/05/17 13:51:47;;;;;;;3.63;2.50;;;;;;;;;;5051914;28;20484;-76
2022/05/17 13:54:30;;;;;;;6.22;2.72;;;;;;;;;;5051511;28;20383;-72
2022/05/17 13:57:02;;;;;;;5.65;3.00;;;;;;;;;;5051591;28;20045;-74
2022/05/17 13:59:30;;;;;;;4.35;2.85;;;;;;;;;;5051667;28;20067;-73
2022/05/17 14:01:59;;;;;;;5.95;2.70;;;;;;;;;;5051603;28;20377;-72
2022/05/17 14:04:35;;;;;;;5.93;2.63;;;;;;;;;;5051553;28;20037;-72
2022/05/17 14:07:17;;;;;;;4.38;2.55;;;;;;;;;;5053325;28;20040;-76
2022/05/17 14:12:28;;;;;;;3.95;2.38;;;;;;;;;;5055252;28;20445;-71
2022/05/17 14:14:54;;;;;;;5.18;2.53;;;;;;;;;;5055401;28;20032;-70
2022/05/17 14:17:27;;;;;;;5.82;2.67;;;;;;;;;;5055015;28;20044;-72
2022/05/17 14:19:59;;;;;;;6.32;2.70;;;;;;;;;;5054869;28;20032;-71
2022/05/17 14:22:31;;;;;;;5.72;2.40;;;;;;;;;;5054935;28;20045;-70
2022/05/17 14:24:58;;;;;;;3.35;2.20;;;;;;;;;;5053628;28;20033;-70
2022/05/17 14:27:23;;;;;;;3.90;2.30;;;;;;;;;;5054604;28;20037;-70
2022/05/17 14:29:49;;;;;;;3.40;2.30;;;;;;;;;;5054907;28;20102;-70
2022/05/17 14:32:18;;;;;;;3.65;2.38;;;;;;;;;;5054925;28;20495;-70
2022/05/17 14:34:44;;;;;;;3.70;2.00;;;;;;;;;;5054831;28;20041;-71
2022/05/17 14:37:12;;;;;;;8.70;2.70;;;;;;;;;;5054680;28;20032;-69
2022/05/17 14:39:39;;;;;;;5.63;2.30;;;;;;;;;;5066346;28;20066;-70
2022/05/17 14:42:05;;;;;;;7.03;3.05;;;;;;;;;;5074487;28;20024;-70
2022/05/17 14:44:31;;;;;;;5.60;3.40;;;;;;;;;;5074507;28;20048;-71
2022/05/17 14:47:08;;;;;;;8.30;3.58;;;;;;;;;;5074404;28;20024;-70
2022/05/17 14:49:37;;;;;;;6.22;3.80;;;;;;;;;;5074484;28;20147;-70
2022/05/17 14:52:05;;;;;;;7.88;4.00;;;;;;;;;;5074212;28;20048;-70
2022/05/17 14:54:35;;;;;;;7.03;3.90;;;;;;;;;;5074283;28;20107;-70
2022/05/17 14:57:01;;;;;;;5.38;4.10;;;;;;;;;;5073487;28;20032;-70
2022/05/17 14:59:28;;;;;;;9.50;4.20;;;;;;;;;;5073859;28;20059;-71
2022/05/17 15:01:56;;;;;;;9.70;4.03;;;;;;;;;;5074126;28;20395;-71
2022/05/17 15:04:26;;;;;;;12.70;3.78;;;;;;;;;;5073814;28;20029;-71
2022/05/17 15:06:55;;;;;;;6.60;3.90;;;;;;;;;;5073577;28;20040;-71
2022/05/17 15:09:29;;;;;;;9.65;3.75;;;;;;;;;;5073530;28;20459;-70
2022/05/17 15:11:56;;;;;;;5.43;3.72;;;;;;;;;;5073941;28;20067;-72
2022/05/17 15:14:22;;;;;;;8.07;3.90;;;;;;;;;;5073957;28;20028;-69
2022/05/17 15:16:48;;;;;;;8.98;4.20;;;;;;;;;;5073464;28;20090;-71
2022/05/17 15:19:18;;;;;;;8.65;3.72;;;;;;;;;;5073428;28;20081;-76
2022/05/17 15:21:48;;;;;;;7.82;3.95;;;;;;;;;;5073910;28;20081;-76
2022/05/17 15:24:16;;;;;;;7.53;4.07;;;;;;;;;;5073842;28;20033;-75